Time;durP1;ratioP1;P1;durP2;ratioP2;P2;SDS_P1;SDS_P2;PMS_P1;PMS_P2;Temp;Humidity;BMP_temperature;BMP_pressure;BME280_temperature;BME280_humidity;BME280_pressure;Samples;Min_cycle;Max_cycle;Signal;HPM_P1;HPM_P2
2021/08/04 00:00:35;;;;;;;3.13;2.20;;;15.40;99.90;;;;;;4976516;28;20046;-79
2021/08/04 00:03:02;;;;;;;4.80;2.22;;;15.50;99.90;;;;;;4968065;28;20041;-79
2021/08/04 00:05:28;;;;;;;4.50;2.35;;;15.50;99.90;;;;;;4962627;28;20042;-79
2021/08/04 00:07:54;;;;;;;5.93;2.28;;;15.50;99.90;;;;;;4973645;28;20031;-79
2021/08/04 00:10:21;;;;;;;5.00;2.22;;;15.50;99.90;;;;;;4973622;28;20027;-80
2021/08/04 00:12:48;;;;;;;5.85;2.50;;;15.50;99.90;;;;;;4973771;28;20142;-79
2021/08/04 00:15:18;;;;;;;2.80;2.00;;;15.40;99.90;;;;;;4964261;28;20421;-79
2021/08/04 00:17:46;;;;;;;6.20;2.42;;;15.40;99.90;;;;;;4971954;28;20035;-80
2021/08/04 00:20:13;;;;;;;5.55;2.85;;;15.50;99.90;;;;;;4975107;28;20056;-79
2021/08/04 00:22:40;;;;;;;5.75;2.80;;;15.50;99.90;;;;;;4956174;29;20054;-79
2021/08/04 00:25:07;;;;;;;5.35;2.22;;;15.40;99.90;;;;;;4971834;28;20030;-79
2021/08/04 00:27:33;;;;;;;3.47;2.30;;;15.30;99.90;;;;;;4974512;28;20034;-79
2021/08/04 00:30:00;;;;;;;4.60;2.78;;;15.30;99.90;;;;;;4975168;28;20034;-79
2021/08/04 00:32:26;;;;;;;3.35;2.45;;;15.30;99.90;;;;;;4974355;28;20505;-79
2021/08/04 00:34:53;;;;;;;3.78;2.28;;;15.30;99.90;;;;;;4989401;28;20043;-79
2021/08/04 00:37:19;;;;;;;3.45;2.35;;;15.20;99.90;;;;;;4964922;28;20040;-79
2021/08/04 00:39:45;;;;;;;5.32;2.88;;;15.20;99.90;;;;;;4972156;28;20065;-79
2021/08/04 00:42:15;;;;;;;4.85;2.40;;;15.20;99.90;;;;;;4973731;28;20039;-79
2021/08/04 00:44:41;;;;;;;5.20;2.53;;;15.20;99.90;;;;;;4972860;28;20449;-79
2021/08/04 00:47:07;;;;;;;4.90;2.80;;;15.20;99.90;;;;;;4960289;28;20054;-79
2021/08/04 00:49:34;;;;;;;3.90;2.13;;;15.20;99.90;;;;;;4974022;28;20026;-79
2021/08/04 00:52:01;;;;;;;3.28;2.40;;;15.20;99.90;;;;;;4966705;28;20362;-79
2021/08/04 00:54:27;;;;;;;3.67;2.95;;;15.20;99.90;;;;;;4980782;28;20070;-79
2021/08/04 00:56:53;;;;;;;5.45;2.90;;;15.20;99.90;;;;;;4970881;28;20046;-79
2021/08/04 00:59:19;;;;;;;4.15;2.25;;;15.20;99.90;;;;;;4971939;28;20059;-79
2021/08/04 01:02:07;;;;;;;5.22;2.70;;;15.20;99.90;;;;;;4957992;28;20047;-79
2021/08/04 01:04:47;;;;;;;5.82;3.08;;;15.20;99.90;;;;;;4972142;28;20661;-79
2021/08/04 01:07:39;;;;;;;4.78;2.70;;;15.20;99.90;;;;;;4973160;28;20485;-79
2021/08/04 01:10:35;;;;;;;3.70;3.00;;;15.20;99.90;;;;;;4959891;28;20039;-79
2021/08/04 01:13:21;;;;;;;5.35;2.90;;;15.30;99.90;;;;;;4953215;29;20050;-79
2021/08/04 01:16:17;;;;;;;3.63;2.45;;;15.30;99.90;;;;;;4972345;28;20050;-78
2021/08/04 01:19:08;;;;;;;3.88;2.42;;;15.30;99.90;;;;;;4955436;28;20053;-79
2021/08/04 01:21:39;;;;;;;3.88;3.15;;;15.30;99.90;;;;;;4973092;28;20381;-79
2021/08/04 01:24:10;;;;;;;3.22;2.40;;;15.40;99.90;;;;;;4973299;28;20035;-79
2021/08/04 01:26:39;;;;;;;6.15;3.38;;;15.40;99.90;;;;;;4966937;28;20043;-79
2021/08/04 01:29:10;;;;;;;3.50;2.73;;;15.40;99.90;;;;;;4970303;28;20039;-79
2021/08/04 01:31:38;;;;;;;4.25;3.05;;;15.40;99.90;;;;;;4969027;28;20042;-78
2021/08/04 01:34:05;;;;;;;6.90;2.28;;;15.50;99.90;;;;;;4972971;28;20030;-79
2021/08/04 01:36:32;;;;;;;5.35;2.97;;;15.40;99.90;;;;;;4970619;28;20476;-78
2021/08/04 01:39:00;;;;;;;5.03;2.42;;;15.50;99.90;;;;;;4981105;28;20050;-78
2021/08/04 01:41:28;;;;;;;6.90;3.53;;;15.40;99.90;;;;;;4974629;28;20035;-79
2021/08/04 01:43:56;;;;;;;4.25;2.78;;;15.40;99.90;;;;;;4973447;28;20046;-78
2021/08/04 01:46:23;;;;;;;4.50;2.85;;;15.40;99.90;;;;;;4972161;28;20495;-78
2021/08/04 01:48:51;;;;;;;3.83;2.50;;;15.40;99.90;;;;;;4959599;28;20035;-78
2021/08/04 01:51:18;;;;;;;3.25;2.70;;;15.40;99.90;;;;;;4959797;28;20027;-78
2021/08/04 01:53:46;;;;;;;3.90;2.20;;;15.40;99.90;;;;;;4972777;28;20046;-78
2021/08/04 01:56:14;;;;;;;3.95;2.65;;;15.40;99.90;;;;;;4972944;28;20046;-78
2021/08/04 01:58:42;;;;;;;5.03;3.00;;;15.40;99.90;;;;;;4971514;28;20062;-78
2021/08/04 02:01:09;;;;;;;3.83;2.30;;;15.40;99.90;;;;;;4973103;28;20054;-78
2021/08/04 02:03:35;;;;;;;2.85;2.03;;;15.40;99.90;;;;;;4971272;28;20043;-78
2021/08/04 02:06:07;;;;;;;6.47;2.60;;;15.40;99.90;;;;;;4955078;28;20035;-78
2021/08/04 02:08:39;;;;;;;5.28;2.70;;;15.40;99.90;;;;;;4969801;28;20520;-78
2021/08/04 02:11:23;;;;;;;3.63;2.70;;;15.40;99.90;;;;;;4970234;28;20038;-78
2021/08/04 02:14:05;;;;;;;4.78;2.63;;;15.40;99.90;;;;;;4969954;28;20050;-79
2021/08/04 02:16:55;;;;;;;4.85;2.60;;;15.40;99.90;;;;;;4972009;28;20039;-79
2021/08/04 02:19:43;;;;;;;3.10;2.30;;;15.40;99.90;;;;;;4972628;28;20046;-78
2021/08/04 02:22:25;;;;;;;4.70;3.03;;;15.40;99.90;;;;;;4971939;28;20053;-78
2021/08/04 02:24:59;;;;;;;5.30;2.67;;;15.40;99.90;;;;;;4972415;28;20043;-78
2021/08/04 02:27:27;;;;;;;5.88;3.13;;;15.30;99.90;;;;;;4973006;28;21164;-78
2021/08/04 02:29:57;;;;;;;4.28;3.05;;;15.30;99.90;;;;;;4972871;28;20461;-78
2021/08/04 02:32:24;;;;;;;5.95;4.18;;;15.30;99.90;;;;;;4972974;28;20031;-79
2021/08/04 02:34:50;;;;;;;5.85;3.80;;;15.30;99.90;;;;;;4971939;28;20042;-79
2021/08/04 02:37:17;;;;;;;4.53;2.97;;;15.30;99.90;;;;;;4955461;28;20046;-78
2021/08/04 02:39:43;;;;;;;4.05;2.97;;;15.30;99.90;;;;;;4970973;28;20397;-79
2021/08/04 02:42:10;;;;;;;3.28;2.50;;;15.30;99.90;;;;;;4972732;28;20373;-79
2021/08/04 02:44:36;;;;;;;5.03;3.13;;;15.30;99.90;;;;;;4972157;28;20047;-78
2021/08/04 02:47:03;;;;;;;7.57;2.70;;;15.30;99.90;;;;;;4972749;28;20058;-78
2021/08/04 02:49:30;;;;;;;3.70;2.78;;;15.30;99.90;;;;;;4972354;28;20095;-79
2021/08/04 02:51:57;;;;;;;6.13;3.17;;;15.30;99.90;;;;;;4972527;28;20027;-78
2021/08/04 02:54:23;;;;;;;6.65;4.13;;;15.30;99.90;;;;;;4973217;28;20065;-78
2021/08/04 02:56:49;;;;;;;10.43;4.55;;;15.30;99.90;;;;;;4969900;28;20059;-78
2021/08/04 02:59:16;;;;;;;5.28;3.58;;;15.30;99.90;;;;;;4972051;28;20059;-78
2021/08/04 03:01:42;;;;;;;3.80;3.10;;;15.30;99.90;;;;;;4971845;28;20042;-78
2021/08/04 03:04:08;;;;;;;6.75;3.35;;;15.40;99.90;;;;;;4976085;28;20067;-78
2021/08/04 03:06:35;;;;;;;5.32;3.28;;;15.40;99.90;;;;;;4961275;28;20479;-78
2021/08/04 03:09:01;;;;;;;7.68;3.60;;;15.30;99.90;;;;;;4970933;28;20027;-78
2021/08/04 03:11:27;;;;;;;4.38;3.72;;;15.30;99.90;;;;;;4975360;28;20039;-78
2021/08/04 03:13:54;;;;;;;6.57;4.35;;;15.30;99.90;;;;;;4971639;28;20057;-78
2021/08/04 03:16:20;;;;;;;7.60;4.50;;;15.30;99.90;;;;;;4967762;28;20457;-78
2021/08/04 03:18:46;;;;;;;5.65;4.13;;;15.30;99.90;;;;;;4975250;28;20047;-78
2021/08/04 03:21:12;;;;;;;5.55;4.45;;;15.30;99.90;;;;;;4976036;28;20027;-78
2021/08/04 03:23:38;;;;;;;7.10;4.35;;;15.30;99.90;;;;;;4974658;28;20058;-78
2021/08/04 03:26:05;;;;;;;7.05;5.05;;;15.30;99.90;;;;;;4975783;28;20388;-78
2021/08/04 03:28:31;;;;;;;8.45;5.05;;;15.30;99.90;;;;;;4975612;28;20046;-78
2021/08/04 03:30:57;;;;;;;7.85;5.00;;;15.30;99.90;;;;;;4974971;28;20618;-78
2021/08/04 03:33:23;;;;;;;7.13;5.18;;;15.30;99.90;;;;;;4974674;28;20047;-78
2021/08/04 03:35:49;;;;;;;6.60;5.75;;;15.40;99.90;;;;;;4964327;28;20096;-79
2021/08/04 03:38:16;;;;;;;8.50;5.72;;;15.40;99.90;;;;;;4975608;28;20034;-78
2021/08/04 03:40:42;;;;;;;11.27;6.70;;;15.40;99.90;;;;;;4961555;28;20051;-79
2021/08/04 03:43:08;;;;;;;9.48;6.55;;;15.40;99.90;;;;;;4957838;28;20030;-79
2021/08/04 03:45:34;;;;;;;10.30;7.10;;;15.40;99.90;;;;;;4965316;28;20031;-79
2021/08/04 03:48:00;;;;;;;9.63;6.78;;;15.40;99.90;;;;;;4957376;28;20051;-79
2021/08/04 03:50:27;;;;;;;8.23;6.20;;;15.40;99.90;;;;;;4973952;28;20037;-79
2021/08/04 03:52:53;;;;;;;7.95;6.13;;;15.40;99.90;;;;;;4975965;28;20060;-79
2021/08/04 03:55:21;;;;;;;8.95;6.50;;;15.40;99.90;;;;;;4974742;28;20409;-79
2021/08/04 03:57:48;;;;;;;8.10;6.18;;;15.40;99.90;;;;;;4974071;28;20046;-79
2021/08/04 04:00:14;;;;;;;9.65;5.90;;;15.40;99.90;;;;;;4972775;28;20058;-79
2021/08/04 04:02:41;;;;;;;9.10;6.10;;;15.40;99.90;;;;;;4956689;29;20042;-79
2021/08/04 04:05:08;;;;;;;10.88;6.60;;;15.30;99.90;;;;;;4973425;28;20034;-79
2021/08/04 04:07:35;;;;;;;11.52;6.03;;;15.20;99.90;;;;;;4975000;28;20042;-80
2021/08/04 04:10:02;;;;;;;6.65;5.45;;;15.20;99.90;;;;;;4974425;28;20388;-80
2021/08/04 04:12:29;;;;;;;9.80;5.57;;;15.20;99.90;;;;;;4973569;28;20037;-80
2021/08/04 04:14:58;;;;;;;7.60;4.57;;;15.10;99.90;;;;;;4973617;28;20042;-79
2021/08/04 04:17:25;;;;;;;6.43;4.00;;;15.20;99.90;;;;;;4975060;28;20026;-79
2021/08/04 04:19:51;;;;;;;7.25;4.30;;;15.20;99.90;;;;;;4966788;28;20393;-79
2021/08/04 04:22:18;;;;;;;9.52;5.07;;;15.20;99.90;;;;;;4965053;28;20412;-79
2021/08/04 04:24:44;;;;;;;7.53;4.97;;;15.20;99.90;;;;;;4976142;28;20095;-79
2021/08/04 04:27:10;;;;;;;8.45;5.40;;;15.30;99.90;;;;;;4958557;28;20034;-79
2021/08/04 04:29:37;;;;;;;6.97;5.47;;;15.30;99.90;;;;;;4973509;28;20046;-79
2021/08/04 04:32:08;;;;;;;8.50;5.32;;;15.30;99.90;;;;;;4974006;28;20034;-78
2021/08/04 04:34:34;;;;;;;5.90;4.65;;;15.30;99.90;;;;;;4973990;28;20053;-79
2021/08/04 04:37:01;;;;;;;6.10;4.28;;;15.30;99.90;;;;;;4974372;28;20045;-78
2021/08/04 04:39:27;;;;;;;5.38;4.13;;;15.30;99.90;;;;;;4965874;28;20027;-78
2021/08/04 04:41:53;;;;;;;4.80;3.53;;;15.30;99.90;;;;;;4955757;28;20039;-79
2021/08/04 04:44:19;;;;;;;6.93;3.20;;;15.40;99.90;;;;;;4957714;28;20412;-79
2021/08/04 04:46:46;;;;;;;5.78;3.40;;;15.40;99.90;;;;;;4975141;28;20023;-78
2021/08/04 04:49:12;;;;;;;5.80;3.55;;;15.40;99.90;;;;;;4957336;28;20044;-78
2021/08/04 04:51:38;;;;;;;4.07;2.67;;;15.40;99.90;;;;;;4975706;28;20035;-78
2021/08/04 04:54:04;;;;;;;3.90;3.28;;;15.40;99.90;;;;;;4975128;28;20567;-78
2021/08/04 04:56:30;;;;;;;6.88;4.38;;;15.50;99.90;;;;;;4963991;28;20035;-78
2021/08/04 04:58:56;;;;;;;5.20;3.10;;;15.50;99.90;;;;;;4969938;28;20046;-78
2021/08/04 05:01:23;;;;;;;8.00;3.05;;;15.50;99.90;;;;;;4976261;28;20035;-79
2021/08/04 05:03:50;;;;;;;5.65;3.42;;;15.50;99.90;;;;;;4975863;28;20072;-79
2021/08/04 05:06:16;;;;;;;5.75;3.28;;;15.50;99.90;;;;;;4974512;28;20034;-79
2021/08/04 05:08:42;;;;;;;6.15;3.63;;;15.60;99.90;;;;;;4969663;28;20034;-79
2021/08/04 05:11:09;;;;;;;5.72;3.67;;;15.60;99.90;;;;;;4968397;28;20030;-79
2021/08/04 05:13:38;;;;;;;6.43;3.65;;;15.70;99.90;;;;;;4973980;28;20027;-79
2021/08/04 05:16:05;;;;;;;5.00;3.67;;;15.70;99.90;;;;;;4974737;28;20035;-79
2021/08/04 05:18:32;;;;;;;3.60;2.90;;;15.70;99.90;;;;;;4955727;29;20027;-80
2021/08/04 05:20:58;;;;;;;5.47;3.15;;;15.70;99.90;;;;;;4963179;28;20031;-79
2021/08/04 05:23:24;;;;;;;3.80;3.38;;;15.70;99.90;;;;;;4968326;28;20026;-79
2021/08/04 05:25:50;;;;;;;4.60;3.38;;;15.70;99.90;;;;;;4973318;28;20030;-79
2021/08/04 05:28:17;;;;;;;5.55;3.50;;;15.70;99.90;;;;;;4972789;28;20039;-79
2021/08/04 05:30:43;;;;;;;5.20;3.72;;;15.80;99.90;;;;;;4973163;28;20057;-79
2021/08/04 05:33:09;;;;;;;4.75;3.30;;;15.80;99.90;;;;;;4973602;28;20038;-79
2021/08/04 05:35:35;;;;;;;5.75;3.80;;;15.80;99.90;;;;;;4967264;28;20034;-79
2021/08/04 05:38:01;;;;;;;6.10;4.03;;;15.80;99.90;;;;;;4985538;28;20043;-78
2021/08/04 05:40:28;;;;;;;4.65;3.42;;;15.80;99.90;;;;;;4978606;28;20031;-78
2021/08/04 05:42:54;;;;;;;5.78;3.53;;;15.80;99.90;;;;;;4981190;28;20046;-79
2021/08/04 05:45:20;;;;;;;4.40;3.47;;;15.80;99.90;;;;;;4972292;28;20039;-80
2021/08/04 05:47:46;;;;;;;5.75;3.60;;;15.90;99.90;;;;;;4972598;28;20038;-79
2021/08/04 05:50:13;;;;;;;4.55;3.30;;;16.00;99.90;;;;;;4973359;28;20043;-80
2021/08/04 05:52:39;;;;;;;4.57;3.40;;;16.00;99.90;;;;;;4972229;28;20035;-79
2021/08/04 05:55:06;;;;;;;4.35;3.30;;;16.10;99.90;;;;;;4969364;28;20496;-81
2021/08/04 05:57:33;;;;;;;4.90;3.20;;;16.10;99.90;;;;;;4966288;28;20057;-81
2021/08/04 05:59:59;;;;;;;4.90;3.30;;;16.20;99.90;;;;;;4955580;28;20058;-80
2021/08/04 06:02:25;;;;;;;4.43;3.10;;;16.20;99.90;;;;;;4979198;28;20023;-81
2021/08/04 06:04:51;;;;;;;5.80;3.20;;;16.30;99.90;;;;;;4967381;28;20042;-81
2021/08/04 06:07:17;;;;;;;5.50;3.22;;;16.20;99.90;;;;;;4965763;28;20034;-81
2021/08/04 06:09:44;;;;;;;6.78;2.70;;;16.30;99.90;;;;;;4972464;28;20469;-81
2021/08/04 06:12:10;;;;;;;4.93;3.28;;;16.40;99.90;;;;;;4975957;28;20053;-81
2021/08/04 06:14:37;;;;;;;8.18;3.25;;;16.40;99.90;;;;;;4972379;28;20043;-80
2021/08/04 06:17:03;;;;;;;8.40;4.00;;;16.30;99.90;;;;;;4956085;28;20039;-81
2021/08/04 06:19:30;;;;;;;5.75;3.58;;;16.40;99.90;;;;;;4973045;28;20038;-81
2021/08/04 06:21:58;;;;;;;3.53;2.83;;;16.40;99.90;;;;;;4972663;28;20031;-81
2021/08/04 06:24:24;;;;;;;8.13;3.08;;;16.40;99.90;;;;;;4957043;28;20043;-80
2021/08/04 06:26:50;;;;;;;5.18;2.95;;;16.50;99.90;;;;;;4957766;28;20042;-81
2021/08/04 06:29:16;;;;;;;5.97;3.28;;;16.50;99.90;;;;;;4978366;28;20039;-80
2021/08/04 06:31:42;;;;;;;4.05;2.83;;;16.50;99.90;;;;;;4977551;28;20026;-80
2021/08/04 06:34:09;;;;;;;3.88;3.45;;;16.50;99.90;;;;;;4973441;28;20050;-81
2021/08/04 06:36:35;;;;;;;4.43;3.22;;;16.60;99.90;;;;;;4971455;28;20043;-79
2021/08/04 06:39:01;;;;;;;6.63;2.80;;;16.60;99.90;;;;;;4983157;28;20030;-80
2021/08/04 06:41:27;;;;;;;5.07;3.28;;;16.60;99.90;;;;;;4970762;28;20026;-81
2021/08/04 06:43:55;;;;;;;3.55;2.78;;;16.70;99.90;;;;;;4970344;28;20392;-80
2021/08/04 06:46:22;;;;;;;5.20;2.72;;;16.70;99.90;;;;;;4961442;28;20028;-79
2021/08/04 06:48:48;;;;;;;4.07;2.90;;;16.60;99.90;;;;;;4966139;28;20030;-79
2021/08/04 06:51:16;;;;;;;4.60;3.08;;;16.60;99.90;;;;;;4976999;28;20030;-78
2021/08/04 06:53:48;;;;;;;4.78;3.28;;;16.60;99.90;;;;;;4975317;28;20042;-78
2021/08/04 06:56:15;;;;;;;7.63;3.40;;;16.60;99.90;;;;;;4959312;28;20058;-79
2021/08/04 06:58:41;;;;;;;4.03;3.10;;;16.60;99.90;;;;;;4965607;28;20045;-79
2021/08/04 07:01:07;;;;;;;4.30;2.90;;;16.70;99.90;;;;;;4976848;28;20035;-79
2021/08/04 07:03:35;;;;;;;6.00;3.28;;;16.80;99.90;;;;;;4966243;28;20037;-80
2021/08/04 07:06:02;;;;;;;5.93;2.90;;;16.90;99.90;;;;;;4975717;28;20384;-80
2021/08/04 07:08:29;;;;;;;4.05;3.00;;;16.90;99.90;;;;;;4959734;28;20066;-80
2021/08/04 07:10:55;;;;;;;6.07;3.33;;;17.10;99.90;;;;;;4966814;28;20027;-80
2021/08/04 07:13:22;;;;;;;4.53;2.78;;;17.30;99.90;;;;;;4958813;28;20148;-80
2021/08/04 07:15:48;;;;;;;4.75;2.55;;;17.50;99.90;;;;;;4977146;28;20047;-80
2021/08/04 07:18:14;;;;;;;5.93;3.00;;;17.70;99.90;;;;;;4976502;28;20039;-80
2021/08/04 07:20:40;;;;;;;6.15;3.33;;;18.00;99.90;;;;;;4976456;28;20039;-80
2021/08/04 07:23:06;;;;;;;5.22;3.10;;;18.60;99.90;;;;;;4964702;28;20461;-80
2021/08/04 07:25:33;;;;;;;6.18;2.55;;;19.20;99.90;;;;;;4965228;28;20039;-80
2021/08/04 07:28:00;;;;;;;4.50;2.72;;;20.00;99.90;;;;;;4983806;28;20043;-80
2021/08/04 07:30:26;;;;;;;4.53;3.13;;;20.10;99.90;;;;;;4994073;28;20041;-80
2021/08/04 07:32:52;;;;;;;5.90;3.42;;;20.30;97.90;;;;;;4991592;28;20042;-79
2021/08/04 07:35:19;;;;;;;4.93;3.83;;;19.30;98.60;;;;;;4974756;28;20031;-78
2021/08/04 07:37:45;;;;;;;5.32;3.75;;;18.60;99.70;;;;;;4975467;28;20050;-79
2021/08/04 07:40:13;;;;;;;5.53;3.45;;;18.70;99.60;;;;;;4974846;28;20369;-79
2021/08/04 07:42:39;;;;;;;3.67;3.30;;;18.80;99.90;;;;;;4971206;28;20035;-79
2021/08/04 07:45:06;;;;;;;6.40;3.80;;;19.00;98.60;;;;;;4970988;28;20038;-79
2021/08/04 07:47:32;;;;;;;5.82;3.40;;;19.10;97.60;;;;;;4962610;28;20035;-79
2021/08/04 07:49:59;;;;;;;8.27;3.90;;;18.80;98.50;;;;;;4974570;28;20042;-80
2021/08/04 07:52:25;;;;;;;7.75;3.70;;;18.80;98.40;;;;;;4974976;28;20038;-80
2021/08/04 07:54:51;;;;;;;6.47;3.90;;;18.70;98.90;;;;;;4959893;28;20039;-80
2021/08/04 07:57:17;;;;;;;6.03;3.83;;;18.60;98.80;;;;;;4961542;28;20465;-80
2021/08/04 07:59:43;;;;;;;4.10;3.50;;;18.20;99.30;;;;;;4974472;28;20043;-80
2021/08/04 08:02:10;;;;;;;5.05;3.17;;;18.20;99.80;;;;;;4969503;28;20036;-80
2021/08/04 08:04:36;;;;;;;5.55;3.33;;;18.20;99.30;;;;;;4956515;28;20043;-80
2021/08/04 08:07:03;;;;;;;8.07;3.83;;;18.10;99.90;;;;;;4966576;28;20327;-80
2021/08/04 08:09:29;;;;;;;5.70;2.80;;;18.20;99.70;;;;;;4975150;28;20054;-80
2021/08/04 08:11:58;;;;;;;6.13;4.10;;;18.20;99.60;;;;;;4974535;28;20031;-80
2021/08/04 08:14:26;;;;;;;4.40;3.78;;;18.20;99.00;;;;;;4975030;28;20034;-80
2021/08/04 08:16:53;;;;;;;3.90;3.22;;;18.10;99.30;;;;;;4973483;28;20369;-80
2021/08/04 08:19:19;;;;;;;6.55;3.40;;;18.10;99.80;;;;;;4971101;28;20527;-80
2021/08/04 08:21:46;;;;;;;4.90;3.00;;;18.10;99.00;;;;;;4990586;28;20510;-80
2021/08/04 08:24:13;;;;;;;4.35;2.65;;;18.00;99.80;;;;;;4958097;28;20047;-81
2021/08/04 08:26:39;;;;;;;5.57;3.97;;;18.10;99.90;;;;;;4977465;28;20039;-81
2021/08/04 08:29:06;;;;;;;5.15;3.72;;;18.00;99.60;;;;;;4973816;28;20041;-81
2021/08/04 08:31:35;;;;;;;4.38;3.80;;;18.10;99.90;;;;;;4971268;28;20034;-80
2021/08/04 08:34:03;;;;;;;4.05;3.20;;;18.30;99.50;;;;;;4974172;28;20038;-81
2021/08/04 08:36:31;;;;;;;5.07;3.47;;;18.40;98.40;;;;;;4970945;28;20046;-78
2021/08/04 08:38:59;;;;;;;7.32;4.18;;;18.60;98.70;;;;;;4971498;28;20046;-79
2021/08/04 08:41:26;;;;;;;6.03;3.45;;;18.80;97.70;;;;;;4976169;28;20038;-79
2021/08/04 08:43:53;;;;;;;5.57;3.30;;;18.80;96.90;;;;;;4979823;28;20034;-79
2021/08/04 08:46:20;;;;;;;3.95;3.17;;;18.90;96.10;;;;;;4978101;28;20043;-79
2021/08/04 08:48:48;;;;;;;3.30;2.95;;;19.00;95.30;;;;;;4974371;28;20043;-79
2021/08/04 08:51:16;;;;;;;4.30;3.50;;;19.10;95.40;;;;;;4974919;28;20034;-79
2021/08/04 08:53:44;;;;;;;4.90;4.35;;;18.70;95.40;;;;;;4969325;28;20046;-80
2021/08/04 08:56:14;;;;;;;4.55;2.85;;;19.00;95.90;;;;;;4970031;28;20034;-78
2021/08/04 08:58:41;;;;;;;4.25;3.30;;;19.60;94.90;;;;;;4973950;28;20035;-80
2021/08/04 09:01:09;;;;;;;3.85;3.08;;;20.00;93.50;;;;;;4969397;28;20053;-80
2021/08/04 09:03:35;;;;;;;4.40;3.22;;;20.10;92.80;;;;;;4969738;28;20050;-80
2021/08/04 09:06:03;;;;;;;4.35;3.35;;;20.50;92.50;;;;;;4956426;28;20035;-80
2021/08/04 09:08:35;;;;;;;4.25;3.03;;;20.90;91.70;;;;;;4968759;28;20049;-78
2021/08/04 09:11:22;;;;;;;6.80;4.00;;;20.90;89.90;;;;;;4955655;28;20027;-79
2021/08/04 09:13:48;;;;;;;4.03;3.13;;;20.20;90.00;;;;;;4957435;28;20353;-79
2021/08/04 09:16:16;;;;;;;5.68;3.13;;;20.50;90.40;;;;;;4974613;28;20039;-79
2021/08/04 09:18:44;;;;;;;5.20;2.78;;;21.00;89.50;;;;;;4974040;28;20042;-80
2021/08/04 09:21:12;;;;;;;3.80;2.92;;;21.90;87.80;;;;;;4956203;28;20027;-80
2021/08/04 09:23:47;;;;;;;3.22;2.88;;;22.70;83.00;;;;;;4964578;28;20030;-78
2021/08/04 09:26:18;;;;;;;4.22;3.10;;;23.00;78.40;;;;;;4973262;28;20035;-79
2021/08/04 09:29:04;;;;;;;6.03;3.30;;;21.50;80.10;;;;;;4973508;28;20038;-79
2021/08/04 09:31:40;;;;;;;4.28;2.95;;;20.20;84.20;;;;;;4972322;28;20038;-78
2021/08/04 09:34:38;;;;;;;4.40;2.20;;;20.20;85.90;;;;;;4973168;28;20027;-79
2021/08/04 09:37:07;;;;;;;2.65;1.80;;;20.50;83.80;;;;;;4973105;28;20248;-79
2021/08/04 09:39:36;;;;;;;2.30;1.67;;;20.90;84.70;;;;;;4973362;28;20030;-79
2021/08/04 09:42:03;;;;;;;2.92;2.13;;;21.00;85.40;;;;;;4960531;28;20035;-78
2021/08/04 09:44:29;;;;;;;3.83;1.88;;;20.60;84.30;;;;;;4967334;28;20034;-78
2021/08/04 09:47:26;;;;;;;2.92;2.22;;;20.70;85.90;;;;;;4956069;28;20042;-80
2021/08/04 09:50:00;;;;;;;3.83;2.50;;;20.70;85.10;;;;;;4954076;28;20054;-79
2021/08/04 09:52:30;;;;;;;2.70;2.30;;;20.70;85.40;;;;;;4973327;28;20031;-79
2021/08/04 09:55:16;;;;;;;4.05;2.55;;;20.30;85.60;;;;;;4972801;28;20045;-79
2021/08/04 09:57:47;;;;;;;4.85;2.70;;;20.30;88.20;;;;;;4972333;28;20039;-79
2021/08/04 10:00:16;;;;;;;4.35;2.42;;;20.40;88.80;;;;;;4973254;28;20047;-79
2021/08/04 10:02:45;;;;;;;13.68;3.33;;;20.40;87.80;;;;;;4961605;28;20065;-79
2021/08/04 10:05:20;;;;;;;5.03;2.70;;;20.60;88.00;;;;;;4972700;28;20038;-79
2021/08/04 10:07:59;;;;;;;5.32;2.53;;;20.80;88.00;;;;;;4964408;28;20044;-81
2021/08/04 10:10:26;;;;;;;4.22;3.03;;;21.10;87.20;;;;;;4959778;28;20042;-80
2021/08/04 10:12:54;;;;;;;7.38;3.40;;;21.50;87.30;;;;;;4972662;28;20029;-79
2021/08/04 10:15:21;;;;;;;5.50;3.33;;;22.10;84.40;;;;;;4972998;28;20393;-80
2021/08/04 10:17:48;;;;;;;6.57;3.35;;;22.10;79.90;;;;;;4972567;28;20027;-79
2021/08/04 10:20:15;;;;;;;4.00;2.85;;;22.30;82.90;;;;;;4972658;28;20042;-79
2021/08/04 10:22:41;;;;;;;3.72;2.70;;;22.10;81.20;;;;;;4971447;28;20043;-77
2021/08/04 10:25:08;;;;;;;4.50;2.83;;;22.60;81.00;;;;;;4968906;28;20466;-78
2021/08/04 10:27:35;;;;;;;3.08;2.65;;;22.10;81.40;;;;;;4970050;28;20043;-77
2021/08/04 10:30:02;;;;;;;4.75;3.13;;;22.20;79.80;;;;;;4972209;28;20050;-74
2021/08/04 10:32:28;;;;;;;4.85;2.85;;;21.30;80.90;;;;;;4972213;28;20030;-77
2021/08/04 10:34:56;;;;;;;4.20;2.42;;;21.40;83.50;;;;;;4970989;28;20049;-77
2021/08/04 10:37:24;;;;;;;3.33;2.00;;;21.60;83.90;;;;;;4965472;28;20027;-75
2021/08/04 10:39:51;;;;;;;2.83;2.20;;;22.10;80.60;;;;;;4968493;28;20042;-76
2021/08/04 10:42:19;;;;;;;3.17;1.60;;;22.40;80.00;;;;;;4973245;28;20042;-77
2021/08/04 10:44:46;;;;;;;3.83;1.88;;;22.50;77.60;;;;;;4973631;28;20035;-77
2021/08/04 10:47:26;;;;;;;2.70;2.03;;;22.20;76.80;;;;;;4973091;28;20039;-76
2021/08/04 10:50:13;;;;;;;1.95;1.48;;;22.00;78.10;;;;;;4971913;28;20455;-77
2021/08/04 10:52:57;;;;;;;1.65;1.13;;;21.80;76.60;;;;;;4963887;28;20050;-78
2021/08/04 10:55:50;;;;;;;2.42;1.00;;;21.80;73.20;;;;;;4959986;28;20030;-79
2021/08/04 10:58:16;;;;;;;1.83;1.17;;;21.50;73.80;;;;;;4967044;28;20381;-79
2021/08/04 11:00:45;;;;;;;2.30;1.40;;;21.20;76.10;;;;;;4962512;28;20516;-78
2021/08/04 11:03:29;;;;;;;3.72;1.17;;;21.20;77.40;;;;;;4969859;28;20031;-77
2021/08/04 11:06:07;;;;;;;3.20;1.38;;;21.80;76.20;;;;;;4984861;28;20050;-78
2021/08/04 11:08:33;;;;;;;2.70;1.55;;;21.80;76.90;;;;;;4972345;28;20034;-78
2021/08/04 11:10:59;;;;;;;1.65;1.35;;;22.10;76.60;;;;;;4954936;28;20038;-78
2021/08/04 11:13:52;;;;;;;2.03;1.63;;;22.20;75.80;;;;;;4971887;28;20035;-79
2021/08/04 11:16:29;;;;;;;2.22;1.30;;;22.40;74.90;;;;;;4969489;28;20047;-79
2021/08/04 11:19:07;;;;;;;4.72;1.83;;;22.50;73.20;;;;;;4986664;28;20034;-79
2021/08/04 11:21:35;;;;;;;3.88;1.70;;;22.10;70.50;;;;;;4962631;28;20030;-79
2021/08/04 11:24:02;;;;;;;3.65;2.20;;;21.50;73.90;;;;;;4972986;28;20042;-78
2021/08/04 11:26:32;;;;;;;3.03;2.17;;;21.70;76.80;;;;;;4961566;28;20042;-79
2021/08/04 11:28:59;;;;;;;2.78;1.90;;;21.80;75.20;;;;;;4968752;28;20047;-78
2021/08/04 11:31:26;;;;;;;4.63;1.85;;;21.80;74.80;;;;;;4975042;28;20408;-79
2021/08/04 11:33:53;;;;;;;3.28;2.08;;;21.60;74.90;;;;;;4976456;28;20034;-79
2021/08/04 11:36:28;;;;;;;4.93;3.70;;;21.80;75.40;;;;;;4977393;28;20461;-77
2021/08/04 11:39:09;;;;;;;4.35;3.45;;;21.60;75.10;;;;;;4975308;28;20499;-78
2021/08/04 11:41:42;;;;;;;5.18;2.28;;;21.30;75.00;;;;;;4971924;28;20035;-77
2021/08/04 11:44:26;;;;;;;3.38;2.13;;;21.40;74.60;;;;;;4957964;28;20389;-78
2021/08/04 11:47:11;;;;;;;3.10;2.08;;;21.10;74.10;;;;;;4980597;28;20035;-79
2021/08/04 11:49:46;;;;;;;4.57;2.75;;;21.00;77.10;;;;;;4966818;28;20048;-78
2021/08/04 11:52:14;;;;;;;7.22;3.10;;;20.90;77.30;;;;;;4976049;28;20381;-77
2021/08/04 11:54:42;;;;;;;3.35;2.25;;;21.10;77.90;;;;;;4976130;28;20054;-77
2021/08/04 11:57:30;;;;;;;2.85;2.00;;;21.50;77.60;;;;;;4976028;28;20212;-77
2021/08/04 11:59:58;;;;;;;4.15;2.40;;;21.70;73.70;;;;;;4970682;28;20047;-77
2021/08/04 12:02:25;;;;;;;4.93;2.42;;;21.70;75.30;;;;;;4975011;28;20468;-77
2021/08/04 12:04:56;;;;;;;3.00;1.67;;;22.00;76.60;;;;;;4974648;28;20035;-78
2021/08/04 12:07:27;;;;;;;3.13;2.00;;;22.30;73.20;;;;;;4973888;28;20046;-77
2021/08/04 12:09:55;;;;;;;3.40;2.40;;;22.00;71.90;;;;;;4974772;28;20027;-77
2021/08/04 12:12:27;;;;;;;4.47;2.20;;;21.90;72.40;;;;;;4966858;28;20049;-78
2021/08/04 12:14:53;;;;;;;4.95;2.00;;;21.80;73.50;;;;;;4974132;28;20046;-76
2021/08/04 12:17:36;;;;;;;2.88;2.17;;;21.40;73.50;;;;;;4973728;28;20031;-77
2021/08/04 12:20:16;;;;;;;3.58;2.85;;;21.30;74.50;;;;;;4975961;28;20030;-77
2021/08/04 12:22:43;;;;;;;4.15;2.00;;;21.10;75.20;;;;;;4957910;29;20047;-77
2021/08/04 12:25:15;;;;;;;4.55;2.20;;;21.30;76.30;;;;;;4974410;28;20370;-77
2021/08/04 12:27:47;;;;;;;5.57;2.55;;;21.60;74.50;;;;;;4974787;28;20388;-76
2021/08/04 12:30:36;;;;;;;2.70;2.20;;;21.00;74.50;;;;;;4975563;28;20043;-77
2021/08/04 12:33:14;;;;;;;3.53;2.13;;;21.10;74.70;;;;;;4976418;28;20046;-78
2021/08/04 12:35:48;;;;;;;3.03;1.98;;;21.30;76.60;;;;;;4971468;28;20497;-83
2021/08/04 12:38:22;;;;;;;3.08;1.90;;;21.80;74.50;;;;;;4964272;28;20034;-86
2021/08/04 12:40:54;;;;;;;3.33;2.50;;;21.60;73.40;;;;;;4968646;28;20046;-84
2021/08/04 12:43:23;;;;;;;4.85;2.15;;;22.00;72.80;;;;;;4975948;28;20027;-82
2021/08/04 12:45:52;;;;;;;4.55;1.80;;;22.30;70.50;;;;;;4980048;28;20031;-85
2021/08/04 12:48:20;;;;;;;3.65;2.08;;;22.20;72.60;;;;;;4976943;28;20044;-84
2021/08/04 12:50:58;;;;;;;4.40;1.98;;;22.50;72.30;;;;;;4990476;28;20027;-85
2021/08/04 12:53:33;;;;;;;3.60;2.38;;;22.50;70.60;;;;;;4974361;28;20043;-85
2021/08/04 12:56:05;;;;;;;4.78;1.90;;;22.10;70.80;;;;;;4975899;28;20039;-81